createdAt,value
2016-11-22T00:00:59.603Z,996
2016-11-22T00:02:05.665Z,996
2016-11-22T00:03:11.665Z,996
2016-11-22T00:04:17.661Z,997
2016-11-22T00:05:23.659Z,997
2016-11-22T00:06:29.666Z,997
2016-11-22T00:07:35.662Z,997
2016-11-22T00:08:41.667Z,997
2016-11-22T00:09:47.668Z,997
2016-11-22T00:10:53.668Z,997
2016-11-22T00:11:59.674Z,997
2016-11-22T00:13:05.677Z,997
2016-11-22T00:14:11.672Z,997
2016-11-22T00:15:17.665Z,997
2016-11-22T00:16:23.669Z,997
2016-11-22T00:17:29.673Z,997
2016-11-22T00:18:35.679Z,997
2016-11-22T00:19:41.671Z,997
2016-11-22T00:20:47.675Z,997
2016-11-22T00:21:53.678Z,997
2016-11-22T00:22:59.675Z,997
2016-11-22T00:24:05.667Z,997
2016-11-22T00:25:11.670Z,997
2016-11-22T00:26:17.672Z,997
2016-11-22T00:27:23.675Z,997
2016-11-22T00:28:29.682Z,997
2016-11-22T00:29:35.676Z,997
2016-11-22T00:30:41.679Z,997
2016-11-22T00:31:46.574Z,997
2016-11-22T00:32:52.571Z,997
2016-11-22T00:33:58.570Z,997
2016-11-22T00:35:04.573Z,997
2016-11-22T00:36:10.570Z,997
2016-11-22T00:37:16.573Z,997
2016-11-22T00:38:22.575Z,997
2016-11-22T00:39:28.574Z,997
2016-11-22T00:40:34.566Z,997
2016-11-22T00:41:40.565Z,997
2016-11-22T00:42:46.562Z,997
2016-11-22T00:43:52.569Z,997
2016-11-22T00:44:58.567Z,997
2016-11-22T00:46:04.572Z,997
2016-11-22T00:47:10.576Z,997
2016-11-22T00:48:16.579Z,997
2016-11-22T00:49:22.571Z,997
2016-11-22T00:50:28.570Z,997
2016-11-22T00:51:34.570Z,997
2016-11-22T00:52:40.583Z,997
2016-11-22T00:53:46.580Z,997
2016-11-22T00:54:52.584Z,997
2016-11-22T00:55:58.580Z,997
2016-11-22T00:57:04.590Z,997
2016-11-22T00:58:10.594Z,997
2016-11-22T00:59:16.589Z,997
2016-11-22T01:00:22.592Z,997
2016-11-22T01:01:28.590Z,997
2016-11-22T01:02:34.596Z,997
2016-11-22T01:03:40.599Z,997
2016-11-22T01:04:46.602Z,997
2016-11-22T01:05:52.600Z,997
2016-11-22T01:06:58.603Z,997
2016-11-22T01:08:04.606Z,997
2016-11-22T01:09:10.599Z,997
2016-11-22T01:10:16.595Z,997
2016-11-22T01:11:22.591Z,997
2016-11-22T01:12:28.594Z,997
2016-11-22T01:13:34.600Z,997
2016-11-22T01:14:40.595Z,997
2016-11-22T01:15:46.599Z,997
2016-11-22T01:16:52.597Z,997
2016-11-22T01:17:58.601Z,997
2016-11-22T01:19:04.597Z,997
2016-11-22T01:20:10.600Z,997
2016-11-22T01:21:16.603Z,998
2016-11-22T01:22:22.611Z,998
2016-11-22T01:23:28.602Z,997
2016-11-22T01:24:34.604Z,997
2016-11-22T01:25:40.600Z,997
2016-11-22T01:26:46.590Z,998
2016-11-22T01:27:52.588Z,997
2016-11-22T01:28:58.591Z,998
2016-11-22T01:30:04.594Z,998
2016-11-22T01:31:10.589Z,998
2016-11-22T01:32:16.594Z,998
2016-11-22T01:33:22.593Z,998
2016-11-22T01:34:28.596Z,997
2016-11-22T01:35:34.585Z,998
2016-11-22T01:36:40.591Z,997
2016-11-22T01:37:46.595Z,998
2016-11-22T01:38:52.598Z,998
2016-11-22T01:39:58.600Z,997
2016-11-22T01:41:04.602Z,997
2016-11-22T01:42:10.606Z,997
2016-11-22T01:43:16.594Z,998
2016-11-22T01:44:22.598Z,998
2016-11-22T01:45:28.599Z,998
2016-11-22T01:46:34.607Z,998
2016-11-22T01:47:40.603Z,998
2016-11-22T01:48:46.606Z,998
2016-11-22T01:49:51.862Z,998
2016-11-22T01:50:57.857Z,998
2016-11-22T01:52:03.849Z,998
2016-11-22T01:53:09.849Z,998
2016-11-22T01:54:15.852Z,998
2016-11-22T01:55:21.844Z,998
2016-11-22T01:56:27.850Z,998
2016-11-22T01:57:33.850Z,998
2016-11-22T01:58:39.848Z,998
2016-11-22T01:59:45.844Z,998
2016-11-22T02:00:51.844Z,998
2016-11-22T02:01:57.846Z,998
2016-11-22T02:03:03.841Z,998
2016-11-22T02:04:09.837Z,998
2016-11-22T02:05:15.840Z,998
2016-11-22T02:06:21.837Z,998
2016-11-22T02:07:27.833Z,998
2016-11-22T02:08:33.822Z,998
2016-11-22T02:09:39.821Z,998
2016-11-22T02:10:45.820Z,998
2016-11-22T02:11:51.826Z,998
2016-11-22T02:12:57.818Z,998
2016-11-22T02:14:03.818Z,998
2016-11-22T02:15:09.822Z,998
2016-11-22T02:16:15.823Z,998
2016-11-22T02:17:21.823Z,998
2016-11-22T02:18:27.827Z,998
2016-11-22T02:19:33.824Z,998
2016-11-22T02:20:39.822Z,998
2016-11-22T02:21:45.816Z,998
2016-11-22T02:22:51.821Z,998
2016-11-22T02:23:57.817Z,998
2016-11-22T02:25:03.824Z,998
2016-11-22T02:26:09.829Z,998
2016-11-22T02:27:15.824Z,998
2016-11-22T02:28:21.827Z,998
2016-11-22T02:29:27.832Z,998
2016-11-22T02:30:33.834Z,998
2016-11-22T02:31:39.836Z,998
2016-11-22T02:32:45.832Z,998
2016-11-22T02:33:51.827Z,998
2016-11-22T02:34:57.828Z,998
2016-11-22T02:36:03.830Z,998
2016-11-22T02:37:09.828Z,998
2016-11-22T02:38:15.818Z,998
2016-11-22T02:39:21.821Z,998
2016-11-22T02:40:27.825Z,998
2016-11-22T02:41:33.819Z,998
2016-11-22T02:42:39.817Z,998
2016-11-22T02:43:45.817Z,998
2016-11-22T02:44:51.822Z,998
2016-11-22T02:45:57.818Z,998
2016-11-22T02:47:03.816Z,998
2016-11-22T02:48:09.816Z,998
2016-11-22T02:49:15.821Z,998
2016-11-22T02:50:21.817Z,998
2016-11-22T02:51:27.807Z,998
2016-11-22T02:52:33.810Z,998
2016-11-22T02:53:39.804Z,998
2016-11-22T02:54:45.793Z,998
2016-11-22T02:55:51.786Z,998
2016-11-22T02:56:57.787Z,998
2016-11-22T02:58:03.793Z,998
2016-11-22T02:59:09.784Z,998
2016-11-22T03:00:15.793Z,998
2016-11-22T03:01:21.793Z,998
2016-11-22T03:02:27.799Z,998
2016-11-22T03:03:33.788Z,998
2016-11-22T03:04:39.794Z,998
2016-11-22T03:05:45.790Z,998
2016-11-22T03:06:51.786Z,998
2016-11-22T03:07:57.778Z,998
2016-11-22T03:09:03.784Z,998
2016-11-22T03:10:09.784Z,998
2016-11-22T03:11:15.788Z,998
2016-11-22T03:12:21.786Z,998
2016-11-22T03:13:27.781Z,998
2016-11-22T03:14:33.781Z,998
2016-11-22T03:15:39.780Z,998
2016-11-22T03:16:45.779Z,998
2016-11-22T03:17:51.779Z,998
2016-11-22T03:18:57.785Z,998
2016-11-22T03:20:03.789Z,998
2016-11-22T03:21:09.785Z,998
2016-11-22T03:22:15.782Z,998
2016-11-22T03:23:21.784Z,998
2016-11-22T03:24:27.790Z,998
2016-11-22T03:25:33.788Z,998
2016-11-22T03:26:39.785Z,998
2016-11-22T03:27:45.787Z,998
2016-11-22T03:28:51.787Z,998
2016-11-22T03:29:57.790Z,999
2016-11-22T03:31:03.795Z,999
2016-11-22T03:32:09.793Z,999
2016-11-22T03:33:15.787Z,999
2016-11-22T03:34:21.782Z,999
2016-11-22T03:35:27.783Z,999
2016-11-22T03:36:33.786Z,999
2016-11-22T03:37:39.792Z,999
2016-11-22T03:38:45.788Z,999
2016-11-22T03:39:51.784Z,999
2016-11-22T03:40:57.794Z,999
2016-11-22T03:42:03.788Z,999
2016-11-22T03:43:09.782Z,999
2016-11-22T03:44:15.776Z,999
2016-11-22T03:45:21.787Z,999
2016-11-22T03:46:27.791Z,999
2016-11-22T03:47:33.786Z,999
2016-11-22T03:48:39.789Z,999
2016-11-22T03:49:45.790Z,999
2016-11-22T03:50:51.789Z,999
2016-11-22T03:51:57.783Z,999
2016-11-22T03:53:03.781Z,999
2016-11-22T03:54:09.778Z,999
2016-11-22T03:55:15.767Z,999
2016-11-22T03:56:21.773Z,999
2016-11-22T03:57:27.775Z,999
2016-11-22T03:58:33.774Z,999
2016-11-22T03:59:39.769Z,998
2016-11-22T04:00:45.764Z,999
2016-11-22T04:01:51.773Z,999
2016-11-22T04:02:57.769Z,999
2016-11-22T04:04:03.770Z,999
2016-11-22T04:05:09.779Z,999
2016-11-22T04:06:15.785Z,999
2016-11-22T04:07:21.783Z,999
2016-11-22T04:08:27.780Z,999
2016-11-22T04:09:33.789Z,999
2016-11-22T04:10:39.781Z,999
2016-11-22T04:11:45.775Z,999
2016-11-22T04:12:51.882Z,999
2016-11-22T04:13:57.887Z,999
2016-11-22T04:15:03.873Z,999
2016-11-22T04:16:09.874Z,999
2016-11-22T04:17:15.877Z,999
2016-11-22T04:18:21.878Z,999
2016-11-22T04:19:27.875Z,999
2016-11-22T04:20:33.867Z,999
2016-11-22T04:21:39.864Z,999
2016-11-22T04:22:45.864Z,999
2016-11-22T04:23:51.871Z,999
2016-11-22T04:24:57.867Z,999
2016-11-22T04:26:03.881Z,999
2016-11-22T04:27:09.865Z,999
2016-11-22T04:28:15.858Z,999
2016-11-22T04:29:21.860Z,999
2016-11-22T04:30:27.857Z,999
2016-11-22T04:31:33.858Z,999
2016-11-22T04:32:39.860Z,999
2016-11-22T04:33:45.855Z,999
2016-11-22T04:34:51.858Z,999
2016-11-22T04:35:57.854Z,999
2016-11-22T04:37:03.855Z,999
2016-11-22T04:38:09.856Z,999
2016-11-22T04:39:15.852Z,999
2016-11-22T04:40:21.845Z,999
2016-11-22T04:41:27.835Z,999
2016-11-22T04:42:33.840Z,999
2016-11-22T04:43:39.843Z,999
2016-11-22T04:44:45.844Z,999
2016-11-22T04:45:51.839Z,999
2016-11-22T04:46:57.850Z,999
2016-11-22T04:48:03.851Z,999
2016-11-22T04:49:09.846Z,999
2016-11-22T04:50:15.839Z,999
2016-11-22T04:51:21.842Z,999
2016-11-22T04:52:27.842Z,999
2016-11-22T04:53:33.838Z,999
2016-11-22T04:54:39.834Z,999
2016-11-22T04:55:45.834Z,999
2016-11-22T04:56:51.829Z,999
2016-11-22T04:57:57.835Z,999
2016-11-22T04:59:03.851Z,999
2016-11-22T05:00:09.836Z,999
2016-11-22T05:01:15.835Z,999
2016-11-22T05:02:21.835Z,999
2016-11-22T05:03:27.832Z,999
2016-11-22T05:04:33.824Z,999
2016-11-22T05:05:39.825Z,999
2016-11-22T05:06:45.827Z,999
2016-11-22T05:07:51.823Z,999
2016-11-22T05:08:57.831Z,999
2016-11-22T05:10:03.820Z,999
2016-11-22T05:11:09.817Z,999
2016-11-22T05:12:15.813Z,999
2016-11-22T05:13:21.825Z,999
2016-11-22T05:14:27.814Z,999
2016-11-22T05:15:33.816Z,999
2016-11-22T05:16:39.818Z,999
2016-11-22T05:17:45.824Z,999
2016-11-22T05:18:51.819Z,999
2016-11-22T05:19:57.827Z,999
2016-11-22T05:21:03.823Z,999
2016-11-22T05:22:09.826Z,999
2016-11-22T05:23:15.817Z,999
2016-11-22T05:24:21.822Z,999
2016-11-22T05:25:27.822Z,999
2016-11-22T05:26:33.819Z,999
2016-11-22T05:27:39.822Z,999
2016-11-22T05:28:45.817Z,999
2016-11-22T05:29:51.820Z,999
2016-11-22T05:30:57.817Z,999
2016-11-22T05:32:03.814Z,999
2016-11-22T05:33:09.819Z,999
2016-11-22T05:34:15.822Z,999
2016-11-22T05:35:21.819Z,999
2016-11-22T05:36:27.815Z,999
2016-11-22T05:37:33.825Z,999
2016-11-22T05:38:39.816Z,999
2016-11-22T05:39:45.815Z,999
2016-11-22T05:40:51.815Z,999
2016-11-22T05:41:57.822Z,999
2016-11-22T05:43:03.813Z,999
2016-11-22T05:44:09.817Z,999
2016-11-22T05:45:15.819Z,999
2016-11-22T05:46:21.822Z,999
2016-11-22T05:47:27.813Z,999
2016-11-22T05:48:33.814Z,999
2016-11-22T05:49:39.813Z,999
2016-11-22T05:50:45.813Z,999
2016-11-22T05:51:51.808Z,999
2016-11-22T05:52:57.804Z,999
2016-11-22T05:54:03.805Z,999
2016-11-22T05:55:09.806Z,999
2016-11-22T05:56:15.805Z,1000
2016-11-22T05:57:21.801Z,1000
2016-11-22T05:58:27.803Z,1000
2016-11-22T05:59:33.805Z,1000
2016-11-22T06:00:39.802Z,1000
2016-11-22T06:01:45.809Z,1000
2016-11-22T06:02:51.814Z,1000
2016-11-22T06:04:17.568Z,1000
2016-11-22T06:05:19.208Z,1000
2016-11-22T06:06:25.208Z,1000
2016-11-22T06:07:31.215Z,1000
2016-11-22T06:08:37.214Z,1000
2016-11-22T06:09:43.214Z,1000
2016-11-22T06:10:49.219Z,1000
2016-11-22T06:11:55.226Z,1000
2016-11-22T06:13:01.237Z,1000
2016-11-22T06:14:07.240Z,1000
2016-11-22T06:15:13.240Z,1000
2016-11-22T06:16:19.313Z,1000
2016-11-22T06:17:25.323Z,1000
2016-11-22T06:18:33.952Z,1000
2016-11-22T06:19:40.046Z,1000
2016-11-22T06:20:46.053Z,1000
2016-11-22T06:21:52.129Z,1000
2016-11-22T06:22:58.134Z,1000
2016-11-22T06:24:04.133Z,1000
2016-11-22T06:25:10.137Z,1000
2016-11-22T06:26:16.140Z,1000
2016-11-22T06:27:22.150Z,1000
2016-11-22T06:28:28.155Z,1000
2016-11-22T06:29:34.148Z,1000
2016-11-22T06:30:40.160Z,1000
2016-11-22T06:31:46.171Z,1000
2016-11-22T06:32:52.159Z,1000
2016-11-22T06:33:58.160Z,1000
2016-11-22T06:35:04.166Z,1000
2016-11-22T06:36:10.202Z,1000
2016-11-22T06:37:16.499Z,1000
2016-11-22T06:38:22.499Z,1000
2016-11-22T06:39:28.505Z,1000
2016-11-22T06:40:34.500Z,1000
2016-11-22T06:41:40.511Z,1000
2016-11-22T06:42:46.520Z,1000
2016-11-22T06:43:52.530Z,1000
2016-11-22T06:44:58.530Z,1000
2016-11-22T06:46:04.537Z,1000
2016-11-22T06:47:10.536Z,1000
2016-11-22T06:48:16.546Z,1000
2016-11-22T06:49:22.544Z,1000
2016-11-22T06:50:28.542Z,1000
2016-11-22T06:51:34.803Z,1000
2016-11-22T06:52:40.542Z,1000
2016-11-22T06:53:46.578Z,1000
2016-11-22T06:54:52.625Z,1000
2016-11-22T06:55:58.925Z,1000
2016-11-22T06:57:05.093Z,1000
2016-11-22T06:58:11.096Z,1000
2016-11-22T06:59:17.092Z,1000
2016-11-22T07:00:23.108Z,1000
2016-11-22T07:01:29.252Z,1000
2016-11-22T07:02:35.252Z,1000
2016-11-22T07:03:41.245Z,1000
2016-11-22T07:04:47.255Z,1000
2016-11-22T07:05:53.262Z,1000
2016-11-22T07:06:59.255Z,1000
2016-11-22T07:08:05.249Z,1000
2016-11-22T07:09:11.253Z,1000
2016-11-22T07:10:17.368Z,1000
2016-11-22T07:11:23.369Z,1000
2016-11-22T07:12:29.372Z,1000
2016-11-22T07:13:35.378Z,1000
2016-11-22T07:14:41.388Z,1000
2016-11-22T07:15:47.382Z,1000
2016-11-22T07:16:53.387Z,1000
2016-11-22T07:17:59.493Z,1000
2016-11-22T07:19:05.464Z,1000
2016-11-22T07:20:11.537Z,1000
2016-11-22T07:21:17.522Z,1000
2016-11-22T07:22:31.425Z,1000
2016-11-22T07:23:39.048Z,1000
2016-11-22T07:24:42.219Z,1000
2016-11-22T07:25:51.765Z,1000
2016-11-22T07:27:00.189Z,1000
2016-11-22T07:28:08.079Z,1000
2016-11-22T07:29:40.275Z,1000
2016-11-22T07:30:49.812Z,1000
2016-11-22T07:32:03.186Z,1000
2016-11-22T07:32:59.983Z,1000
2016-11-22T07:34:14.775Z,1000
2016-11-22T07:35:32.588Z,1000
2016-11-22T07:36:39.539Z,1000
2016-11-22T07:37:47.334Z,1000
2016-11-22T07:38:50.757Z,1000
2016-11-22T07:39:59.496Z,1000
2016-11-22T07:40:59.701Z,1000
2016-11-22T07:43:20.370Z,1000
2016-11-22T07:44:33.548Z,1000
2016-11-22T07:45:55.680Z,1000
2016-11-22T07:47:04.703Z,1000
2016-11-22T07:48:17.701Z,1000
2016-11-22T07:49:21.828Z,1000
2016-11-22T07:50:29.340Z,1000
2016-11-22T07:51:37.897Z,1000
2016-11-22T07:52:40.203Z,1000
2016-11-22T07:53:48.185Z,1000
2016-11-22T07:54:54.080Z,1000
2016-11-22T07:56:00.389Z,1000
2016-11-22T07:57:06.386Z,1000
2016-11-22T07:58:12.488Z,1000
2016-11-22T07:59:18.399Z,1000
2016-11-22T08:00:24.408Z,1000
2016-11-22T08:01:30.410Z,1000
2016-11-22T08:02:36.417Z,1000
2016-11-22T08:03:42.543Z,1001
2016-11-22T08:04:48.546Z,1000
2016-11-22T08:05:54.549Z,1000
2016-11-22T08:07:00.554Z,1000
2016-11-22T08:08:06.555Z,1000
2016-11-22T08:09:12.606Z,1000
2016-11-22T08:10:18.607Z,1000
2016-11-22T08:11:24.601Z,1000
2016-11-22T08:12:30.613Z,1000
2016-11-22T08:13:36.614Z,1000
2016-11-22T08:14:42.639Z,1000
2016-11-22T08:15:48.639Z,1000
2016-11-22T08:16:54.648Z,1000
2016-11-22T08:18:00.645Z,1000
2016-11-22T08:19:06.647Z,1000
2016-11-22T08:20:12.705Z,1001
2016-11-22T08:21:18.709Z,1000
2016-11-22T08:22:24.705Z,1000
2016-11-22T08:23:30.709Z,1001
2016-11-22T08:24:36.716Z,1001
2016-11-22T08:25:42.711Z,1001
2016-11-22T08:26:48.709Z,1000
2016-11-22T08:27:54.703Z,1001
2016-11-22T08:29:00.712Z,1001
2016-11-22T08:30:06.711Z,1001
2016-11-22T08:31:11.971Z,1001
2016-11-22T08:32:17.229Z,1001
2016-11-22T08:33:23.303Z,1001
2016-11-22T08:34:29.355Z,1001
2016-11-22T08:35:35.367Z,1001
2016-11-22T08:36:41.361Z,1001
2016-11-22T08:37:47.366Z,1001
2016-11-22T08:38:53.367Z,1001
2016-11-22T08:39:59.368Z,1001
2016-11-22T08:41:05.378Z,1001
2016-11-22T08:42:11.396Z,1001
2016-11-22T08:43:17.427Z,1001
2016-11-22T08:44:23.425Z,1001
2016-11-22T08:45:29.417Z,1001
2016-11-22T08:46:35.429Z,1001
2016-11-22T08:47:41.443Z,1001
2016-11-22T08:48:47.453Z,1001
2016-11-22T08:49:53.552Z,1001
2016-11-22T08:50:59.583Z,1001
2016-11-22T08:52:05.600Z,1001
2016-11-22T08:53:11.595Z,1001
2016-11-22T08:54:17.613Z,1001
2016-11-22T08:55:23.612Z,1001
2016-11-22T08:56:29.626Z,1001
2016-11-22T08:57:35.626Z,1001
2016-11-22T08:58:41.636Z,1001
2016-11-22T08:59:47.642Z,1001
2016-11-22T09:00:53.696Z,1001
2016-11-22T09:01:59.883Z,1001
2016-11-22T09:03:05.887Z,1001
2016-11-22T09:04:11.895Z,1001
2016-11-22T09:05:17.914Z,1001
2016-11-22T09:06:23.909Z,1001
2016-11-22T09:07:29.908Z,1001
2016-11-22T09:08:35.911Z,1001
2016-11-22T09:09:41.917Z,1001
2016-11-22T09:10:47.914Z,1001
2016-11-22T09:11:53.927Z,1001
2016-11-22T09:12:59.918Z,1001
2016-11-22T09:14:05.929Z,1002
2016-11-22T09:15:11.923Z,1002
2016-11-22T09:16:17.928Z,1001
2016-11-22T09:17:23.929Z,1002
2016-11-22T09:18:29.932Z,1002
2016-11-22T09:19:35.932Z,1002
2016-11-22T09:20:41.939Z,1002
2016-11-22T09:21:47.950Z,1002
2016-11-22T09:22:53.950Z,1002
2016-11-22T09:23:59.941Z,1002
2016-11-22T09:25:05.942Z,1002
2016-11-22T09:26:11.957Z,1002
2016-11-22T09:27:17.949Z,1002
2016-11-22T09:28:23.948Z,1002
2016-11-22T09:29:29.955Z,1002
2016-11-22T09:30:35.953Z,1002
2016-11-22T09:31:42.270Z,1002
2016-11-22T09:32:48.263Z,1002
2016-11-22T09:33:54.262Z,1002
2016-11-22T09:35:00.263Z,1002
2016-11-22T09:36:06.260Z,1002
2016-11-22T09:37:12.266Z,1002
2016-11-22T09:38:18.264Z,1002
2016-11-22T09:39:24.264Z,1002
2016-11-22T09:40:30.267Z,1002
2016-11-22T09:41:36.268Z,1002
2016-11-22T09:42:42.265Z,1002
2016-11-22T09:43:48.257Z,1002
2016-11-22T09:44:54.262Z,1002
2016-11-22T09:46:00.259Z,1002
2016-11-22T09:47:05.518Z,1002
2016-11-22T09:48:11.527Z,1002
2016-11-22T09:49:17.533Z,1002
2016-11-22T09:50:23.531Z,1002
2016-11-22T09:51:29.532Z,1002
2016-11-22T09:52:35.541Z,1002
2016-11-22T09:53:41.538Z,1002
2016-11-22T09:54:47.543Z,1002
2016-11-22T09:55:53.537Z,1002
2016-11-22T09:56:59.547Z,1002
2016-11-22T09:58:05.542Z,1002
2016-11-22T09:59:11.545Z,1002
2016-11-22T10:00:17.552Z,1002
2016-11-22T10:01:23.564Z,1002
2016-11-22T10:02:28.811Z,1002
2016-11-22T10:03:34.819Z,1002
2016-11-22T10:04:40.817Z,1002
2016-11-22T10:05:46.820Z,1002
2016-11-22T10:06:52.818Z,1002
2016-11-22T10:07:58.842Z,1002
2016-11-22T10:09:04.835Z,1002
2016-11-22T10:10:10.835Z,1002
2016-11-22T10:11:16.840Z,1002
2016-11-22T10:12:22.849Z,1002
2016-11-22T10:13:28.843Z,1002
2016-11-22T10:14:34.844Z,1002
2016-11-22T10:15:40.857Z,1002
2016-11-22T10:16:46.842Z,1002
2016-11-22T10:17:52.850Z,1002
2016-11-22T10:18:58.857Z,1002
2016-11-22T10:20:04.865Z,1002
2016-11-22T10:21:10.909Z,1002
2016-11-22T10:22:16.920Z,1002
2016-11-22T10:23:22.932Z,1002
2016-11-22T10:24:28.921Z,1002
2016-11-22T10:25:34.913Z,1002
2016-11-22T10:26:40.922Z,1002
2016-11-22T10:27:46.926Z,1002
2016-11-22T10:28:52.933Z,1002
2016-11-22T10:29:58.931Z,1002
2016-11-22T10:31:04.933Z,1002
2016-11-22T10:32:10.936Z,1002
2016-11-22T10:33:16.940Z,1002
2016-11-22T10:34:22.952Z,1002
2016-11-22T10:35:28.953Z,1002
2016-11-22T10:36:34.957Z,1002
2016-11-22T10:37:40.965Z,1002
2016-11-22T10:38:46.981Z,1002
2016-11-22T10:39:52.985Z,1002
2016-11-22T10:40:58.988Z,1002
2016-11-22T10:42:04.989Z,1002
2016-11-22T10:43:10.990Z,1002
2016-11-22T10:44:16.994Z,1002
2016-11-22T10:45:22.994Z,1002
2016-11-22T10:46:28.994Z,1002
2016-11-22T10:47:35.006Z,1002
2016-11-22T10:48:41.011Z,1002
2016-11-22T10:49:47.009Z,1002
2016-11-22T10:50:53.016Z,1002
2016-11-22T10:51:59.016Z,1002
2016-11-22T10:53:05.014Z,1002
2016-11-22T10:54:11.011Z,1002
2016-11-22T10:55:17.016Z,1002
2016-11-22T10:56:23.015Z,1002
2016-11-22T10:57:29.016Z,1003
2016-11-22T10:58:35.021Z,1003
2016-11-22T10:59:41.031Z,1003
2016-11-22T11:00:47.039Z,1003
2016-11-22T11:01:53.031Z,1003
2016-11-22T11:02:59.038Z,1003
2016-11-22T11:04:05.047Z,1002
2016-11-22T11:05:11.052Z,1002
2016-11-22T11:06:17.057Z,1002
2016-11-22T11:07:23.065Z,1002
2016-11-22T11:08:29.060Z,1002
2016-11-22T11:09:35.065Z,1003
2016-11-22T11:10:41.069Z,1002
2016-11-22T11:11:47.069Z,1003
2016-11-22T11:12:53.076Z,1003
2016-11-22T11:13:59.072Z,1003
2016-11-22T11:15:05.074Z,1003
2016-11-22T11:16:11.084Z,1003
2016-11-22T11:17:17.090Z,1003
2016-11-22T11:18:23.093Z,1003
2016-11-22T11:19:28.343Z,1003
2016-11-22T11:20:34.353Z,1003
2016-11-22T11:21:40.347Z,1003
2016-11-22T11:22:46.405Z,1003
2016-11-22T11:23:52.409Z,1003
2016-11-22T11:24:58.417Z,1003
2016-11-22T11:26:04.419Z,1003
2016-11-22T11:27:10.420Z,1003
2016-11-22T11:28:16.440Z,1003
2016-11-22T11:29:22.433Z,1003
2016-11-22T11:30:28.435Z,1003
2016-11-22T11:31:34.444Z,1003
2016-11-22T11:32:40.447Z,1003
2016-11-22T11:33:46.451Z,1003
2016-11-22T11:34:52.454Z,1003
2016-11-22T11:35:58.462Z,1003
2016-11-22T11:37:04.485Z,1003
2016-11-22T11:38:10.474Z,1003
2016-11-22T11:39:16.478Z,1003
2016-11-22T11:40:22.480Z,1003
2016-11-22T11:41:28.472Z,1003
2016-11-22T11:42:34.476Z,1003
2016-11-22T11:43:40.481Z,1003
2016-11-22T11:44:46.476Z,1003
2016-11-22T11:45:52.497Z,1003
2016-11-22T11:46:58.494Z,1003
2016-11-22T11:48:04.582Z,1003
2016-11-22T11:49:10.577Z,1003
2016-11-22T11:50:16.576Z,1003
2016-11-22T11:51:22.583Z,1003
2016-11-22T11:52:28.579Z,1003
2016-11-22T11:53:34.659Z,1003
2016-11-22T11:54:40.667Z,1003
2016-11-22T11:55:46.666Z,1003
2016-11-22T11:56:52.660Z,1003
2016-11-22T11:57:58.668Z,1003
2016-11-22T11:59:04.672Z,1003
2016-11-22T12:00:10.674Z,1003
2016-11-22T12:01:16.681Z,1003
2016-11-22T12:02:22.727Z,1003
2016-11-22T12:03:28.728Z,1003
2016-11-22T12:04:34.741Z,1003
2016-11-22T12:05:40.738Z,1003
2016-11-22T12:06:46.846Z,1003
2016-11-22T12:07:52.848Z,1003
2016-11-22T12:08:58.848Z,1003
2016-11-22T12:10:04.847Z,1003
2016-11-22T12:11:10.864Z,1003
2016-11-22T12:12:16.868Z,1003
2016-11-22T12:13:22.876Z,1003
2016-11-22T12:14:28.874Z,1003
2016-11-22T12:15:34.881Z,1003
2016-11-22T12:16:40.874Z,1003
2016-11-22T12:17:46.879Z,1003
2016-11-22T12:18:52.887Z,1003
2016-11-22T12:19:58.900Z,1003
2016-11-22T12:21:04.909Z,1003
2016-11-22T12:22:10.909Z,1003
2016-11-22T12:23:16.941Z,1003
2016-11-22T12:24:22.942Z,1003
2016-11-22T12:25:29.486Z,1003
2016-11-22T12:26:34.954Z,1003
2016-11-22T12:27:40.965Z,1003
2016-11-22T12:28:46.965Z,1003
2016-11-22T12:29:52.963Z,1003
2016-11-22T12:30:58.971Z,1003
2016-11-22T12:32:04.968Z,1003
2016-11-22T12:33:10.968Z,1003
2016-11-22T12:34:16.969Z,1003
2016-11-22T12:35:22.973Z,1003
2016-11-22T12:36:28.971Z,1003
2016-11-22T12:37:34.975Z,1003
2016-11-22T12:38:40.982Z,1003
2016-11-22T12:39:46.244Z,1003
2016-11-22T12:40:52.241Z,1003
2016-11-22T12:41:58.243Z,1003
2016-11-22T12:43:04.247Z,1003
2016-11-22T12:44:10.248Z,1003
2016-11-22T12:45:16.242Z,1003
2016-11-22T12:46:23.400Z,1003
2016-11-22T12:47:30.712Z,1003
2016-11-22T12:48:36.545Z,1003
2016-11-22T12:49:42.540Z,1004
2016-11-22T12:50:48.540Z,1004
2016-11-22T12:51:54.570Z,1003
2016-11-22T12:53:00.588Z,1004
2016-11-22T12:54:06.578Z,1004
2016-11-22T12:55:12.760Z,1004
2016-11-22T12:56:18.766Z,1004
2016-11-22T12:57:24.776Z,1004
2016-11-22T12:58:30.774Z,1004
2016-11-22T12:59:36.774Z,1004
2016-11-22T13:00:42.874Z,1004
2016-11-22T13:01:48.875Z,1003
2016-11-22T13:02:54.866Z,1003
2016-11-22T13:04:00.874Z,1003
2016-11-22T13:05:06.878Z,1003
2016-11-22T13:06:12.907Z,1003
2016-11-22T13:07:18.910Z,1003
2016-11-22T13:08:24.916Z,1003
2016-11-22T13:09:30.928Z,1003
2016-11-22T13:10:36.922Z,1003
2016-11-22T13:11:42.922Z,1003
2016-11-22T13:12:48.918Z,1004
2016-11-22T13:13:54.939Z,1003
2016-11-22T13:15:00.936Z,1004
2016-11-22T13:16:06.939Z,1004
2016-11-22T13:17:12.935Z,1004
2016-11-22T13:18:18.940Z,1004
2016-11-22T13:19:24.937Z,1004
2016-11-22T13:20:30.938Z,1004
2016-11-22T13:21:36.933Z,1004
2016-11-22T13:22:42.941Z,1004
2016-11-22T13:23:48.947Z,1004
2016-11-22T13:24:54.952Z,1004
2016-11-22T13:26:00.963Z,1004
2016-11-22T13:27:06.971Z,1004
2016-11-22T13:28:12.975Z,1004
2016-11-22T13:29:18.974Z,1004
2016-11-22T13:30:24.974Z,1004
2016-11-22T13:31:30.973Z,1004
2016-11-22T13:32:36.981Z,1004
2016-11-22T13:33:42.978Z,1004
2016-11-22T13:34:48.984Z,1004
2016-11-22T13:35:54.986Z,1004
2016-11-22T13:37:00.985Z,1004
2016-11-22T13:38:06.982Z,1004
2016-11-22T13:39:12.982Z,1004
2016-11-22T13:40:18.987Z,1004
2016-11-22T13:41:24.985Z,1004
2016-11-22T13:42:30.987Z,1004
2016-11-22T13:43:36.995Z,1004
2016-11-22T13:44:43.000Z,1004
2016-11-22T13:45:48.996Z,1004
2016-11-22T13:46:54.997Z,1004
2016-11-22T13:48:01.001Z,1004
2016-11-22T13:49:06.999Z,1004
2016-11-22T13:50:13.001Z,1004
2016-11-22T13:51:18.999Z,1004
2016-11-22T13:52:25.007Z,1004
2016-11-22T13:53:31.018Z,1004
2016-11-22T13:54:37.015Z,1004
2016-11-22T13:55:43.016Z,1004
2016-11-22T13:56:49.016Z,1004
2016-11-22T13:57:55.017Z,1004
2016-11-22T13:59:01.035Z,1004
2016-11-22T14:00:07.031Z,1004
2016-11-22T14:01:13.035Z,1004
2016-11-22T14:02:19.039Z,1004
2016-11-22T14:03:25.066Z,1004
2016-11-22T14:04:31.051Z,1004
2016-11-22T14:05:37.053Z,1004
2016-11-22T14:06:43.059Z,1004
2016-11-22T14:07:49.093Z,1004
2016-11-22T14:08:54.365Z,1004
2016-11-22T14:10:00.366Z,1004
2016-11-22T14:11:06.374Z,1004
2016-11-22T14:12:12.377Z,1004
2016-11-22T14:13:22.452Z,1004
2016-11-22T14:14:30.862Z,1004
2016-11-22T14:15:41.387Z,1004
2016-11-22T14:16:44.895Z,1004
2016-11-22T14:17:52.629Z,1004
2016-11-22T14:18:58.510Z,1004
2016-11-22T14:20:04.509Z,1004
2016-11-22T14:21:11.397Z,1004
2016-11-22T14:22:22.896Z,1004
2016-11-22T14:23:25.083Z,1004
2016-11-22T14:24:31.093Z,1004
2016-11-22T14:25:37.088Z,1004
2016-11-22T14:26:43.094Z,1004
2016-11-22T14:27:49.091Z,1004
2016-11-22T14:28:55.089Z,1004
2016-11-22T14:30:01.086Z,1004
2016-11-22T14:31:07.086Z,1004
2016-11-22T14:32:13.094Z,1004
2016-11-22T14:33:19.092Z,1004
2016-11-22T14:34:25.095Z,1004
2016-11-22T14:35:31.092Z,1004
2016-11-22T14:36:37.091Z,1004
2016-11-22T14:37:43.091Z,1004
2016-11-22T14:38:49.099Z,1004
2016-11-22T14:39:55.098Z,1004
2016-11-22T14:41:01.101Z,1004
2016-11-22T14:42:07.102Z,1004
2016-11-22T14:43:13.107Z,1004
2016-11-22T14:44:19.108Z,1004
2016-11-22T14:45:25.111Z,1004
2016-11-22T14:46:31.119Z,1004
2016-11-22T14:47:37.130Z,1004
2016-11-22T14:48:43.132Z,1004
2016-11-22T14:49:49.135Z,1004
2016-11-22T14:50:55.135Z,1004
2016-11-22T14:52:01.136Z,1004
2016-11-22T14:53:07.141Z,1004
2016-11-22T14:54:13.137Z,1004